Esther, Alberta

Past 24 Hour Conditions

This table is a summary of hourly weather conditions for the past 24 hours. This summary includes the following parameters: temperature, humidity, dew point, wind speed and direction, air pressure, visibility and/or wind chill and humidex.
Date / Time
(MDT)
Conditions Temp (°F) Humidity (%) Dew Point (°F) Wind (mph) Pressure (inches) Visibility (miles)
01 September 2014
12:00 N/A 67 32 36 SW 8 29.8 N/A
11:00 N/A 64 40 39 WSW 7 29.9 N/A
10:00 N/A 61 48 41 SW 8 29.9 N/A
9:00 N/A 54 59 40 SW 11 29.9 N/A
8:00 N/A 49 67 38 SW 6 29.9 N/A
7:00 N/A 45 76 37 SW 8 29.9 N/A
6:00 N/A 42   82 37 SW 11 29.9 N/A
5:00 N/A 44 77 37 SW 9 29.9 N/A
4:00 N/A 44 78 38 SW 12 29.9 N/A
3:00 N/A 45 75 38 SW 10 29.9 N/A
2:00 N/A 45 78 38 SW 10 29.9 N/A
1:00 N/A 45 79 39 WSW 9 29.8 N/A
00:00 N/A 49 68 39 WSW 10 29.8 N/A
31 August 2014
23:00 N/A 49 71 40 SSW 12 29.8 N/A
22:00 N/A 49 67 39 WSW 8 29.8 N/A
21:00 N/A 50 69 40 SW 8 29.8 N/A
20:00 N/A 54 59 40 WSW 7 29.8 N/A
19:00 N/A 64 38 38 W 9 29.8 N/A
18:00 N/A 67 34 37 WNW 11 gust 18 29.8 N/A
17:00 N/A 68   31 36 WNW 14 29.8 N/A
16:00 N/A 65 41 40 WNW 14 gust 22 29.8 N/A
15:00 N/A 68   35 39 WNW 13 29.8 N/A
14:00 N/A 66 35 38 WNW 14 29.8 N/A
13:00 N/A 64 46 42 W 9 29.8 N/A
12:00 N/A 62 50 44 NW 11 29.8 N/A
N/A
Not available
 ↑ 
Highest temperature
 ↓ 
Lowest temperature

If you require additional historical weather information, please visit Climate Data Online.